Latest Weather Observations for South Channel Island

IDV60901

Issued at 12:11 pm EST Tuesday 21 September 2021 (issued every 10 minutes, with the page automatically refreshed every 10 minutes)

About weather observations | Map of Melbourne area stations | Latest observations for Melbourne area | Other Formats
Station Details ID: 086344 Name: SOUTH CHANNEL ISLAND Lat: -38.31 Lon: 144.80 Height: 9.0 m
Data from the previous 72 hours. | See also: Recent months at South Channel Island
Date/Time
EST
Temp
°C
App
Temp
°C
Dew
Point
°C
Rel
Hum
%
Delta-T
°C
Wind Press
QNH
hPa
Press
MSL
hPa
Rain since
9am
mm
Dir  Spd
km/h
Gust
km/h
Spd
kts
Gust
kts
21/12:00pm - - - - - SW 39 46 21 25 - - -
21/11:30am - - - - - SW 44 54 24 29 - - -
21/11:00am - - - - - SSW 43 50 23 27 - - -
21/10:30am - - - - - SSW 39 48 21 26 - - -
21/10:00am - - - - - SW 39 48 21 26 - - -
21/09:30am - - - - - SW 44 56 24 30 - - -
21/09:00am - - - - - SSW 44 52 24 28 - - -
21/08:33am - - - - - SSW 56 72 30 39 - - -
21/08:30am - - - - - SSW 61 72 33 39 - - -
21/08:26am - - - - - SSW 52 72 28 39 - - -
21/08:21am - - - - - SSW 43 67 23 36 - - -
21/08:00am - - - - - SSW 46 57 25 31 - - -
21/07:30am - - - - - SSW 39 48 21 26 - - -
21/07:00am - - - - - SSW 44 56 24 30 - - -
21/06:30am - - - - - SW 43 54 23 29 - - -
21/06:05am - - - - - SSW 43 61 23 33 - - -
21/06:00am - - - - - SW 41 56 22 30 - - -
21/05:30am - - - - - SSW 43 56 23 30 - - -
21/05:00am - - - - - SW 50 72 27 39 - - -
21/04:30am - - - - - SSW 46 56 25 30 - - -
21/04:00am - - - - - SSW 56 65 30 35 - - -
21/03:30am - - - - - SSW 50 57 27 31 - - -
21/03:00am - - - - - SW 46 59 25 32 - - -
21/02:30am - - - - - SSW 46 57 25 31 - - -
21/02:11am - - - - - SW 48 72 26 39 - - -
21/02:00am - - - - - SSW 48 57 26 31 - - -
21/01:30am - - - - - SSW 48 57 26 31 - - -
21/01:00am - - - - - SW 44 54 24 29 - - -
21/12:40am - - - - - SW 50 72 27 39 - - -
21/12:30am - - - - - SW 48 54 26 29 - - -
21/12:00am - - - - - SW 39 48 21 26 - - -
 
Date/Time
EST
Temp
°C
App
Temp
°C
Dew
Point
°C
Rel
Hum
%
Delta-T
°C
Wind Press
QNH
hPa
Press
MSL
hPa
Rain since
9am
mm
Dir  Spd
km/h
Gust
km/h
Spd
kts
Gust
kts
20/11:42pm - - - - - SSW 57 74 31 40 - - -
20/11:30pm - - - - - SSW 61 76 33 41 - - -
20/11:27pm - - - - - SSW 56 76 30 41 - - -
20/11:23pm - - - - - SW 48 69 26 37 - - -
20/11:04pm - - - - - WSW 41 50 22 27 - - -
20/11:00pm - - - - - WSW 43 57 23 31 - - -
20/10:30pm - - - - - WSW 44 57 24 31 - - -
20/10:00pm - - - - - W 46 54 25 29 - - -
20/09:30pm - - - - - WSW 43 52 23 28 - - -
20/09:00pm - - - - - WSW 46 57 25 31 - - -
20/08:30pm - - - - - WSW 50 59 27 32 - - -
20/08:14pm - - - - - WSW 33 54 18 29 - - -
20/08:00pm - - - - - WSW 41 48 22 26 - - -
20/07:30pm - - - - - WSW 50 57 27 31 - - -
20/07:00pm - - - - - WSW 46 56 25 30 - - -
20/06:30pm - - - - - WSW 39 54 21 29 - - -
20/06:18pm - - - - - WSW 43 70 23 38 - - -
20/06:00pm - - - - - WSW 37 44 20 24 - - -
20/05:30pm - - - - - WSW 35 46 19 25 - - -
20/05:00pm - - - - - W 39 46 21 25 - - -
20/04:30pm - - - - - W 37 43 20 23 - - -
20/04:00pm - - - - - W 46 57 25 31 - - -
20/03:30pm - - - - - W 35 43 19 23 - - -
20/03:00pm - - - - - WSW 44 61 24 33 - - -
20/02:47pm - - - - - W 46 65 25 35 - - -
20/02:30pm - - - - - W 48 54 26 29 - - -
20/02:00pm - - - - - W 48 54 26 29 - - -
20/01:39pm - - - - - W 48 61 26 33 - - -
20/01:30pm - - - - - W 39 50 21 27 - - -
20/01:19pm - - - - - WSW 56 76 30 41 - - -
20/01:06pm - - - - - W 59 80 32 43 - - -
20/01:00pm - - - - - W 54 63 29 34 - - -
20/12:30pm - - - - - W 48 57 26 31 - - -
20/12:00pm - - - - - W 57 67 31 36 - - -
20/11:30am - - - - - W 57 69 31 37 - - -
20/11:07am - - - - - W 44 63 24 34 - - -
20/11:00am - - - - - W 39 48 21 26 - - -
20/10:39am - - - - - W 54 72 29 39 - - -
20/10:30am - - - - - W 50 63 27 34 - - -
20/10:00am - - - - - W 43 54 23 29 - - -
20/09:30am - - - - - W 54 61 29 33 - - -
20/09:10am - - - - - W 54 72 29 39 - - -
20/09:00am - - - - - W 56 70 30 38 - - -
20/08:37am - - - - - W 52 69 28 37 - - -
20/08:30am - - - - - W 48 57 26 31 - - -
20/08:00am - - - - - W 46 54 25 29 - - -
20/07:30am - - - - - W 46 59 25 32 - - -
20/07:00am - - - - - WNW 50 59 27 32 - - -
20/06:30am - - - - - WNW 46 57 25 31 - - -
20/06:00am - - - - - WNW 46 57 25 31 - - -
20/05:30am - - - - - WNW 52 63 28 34 - - -
20/05:00am - - - - - WNW 50 63 27 34 - - -
20/04:38am - - - - - WNW 52 70 28 38 - - -
20/04:30am - - - - - WNW 52 61 28 33 - - -
20/04:00am - - - - - WNW 59 72 32 39 - - -
20/03:30am - - - - - WNW 59 70 32 38 - - -
20/03:04am - - - - - WNW 59 85 32 46 - - -
20/03:00am - - - - - WNW 57 72 31 39 - - -
20/02:33am - - - - - WNW 50 70 27 38 - - -
20/02:30am - - - - - WNW 48 63 26 34 - - -
20/02:00am - - - - - WNW 39 48 21 26 - - -
20/01:30am - - - - - WNW 30 35 16 19 - - -
20/01:00am - - - - - W 35 41 19 22 - - -
20/12:30am - - - - - W 37 44 20 24 - - -
20/12:00am - - - - - W 30 39 16 21 - - -
 
Date/Time
EST
Temp
°C
App
Temp
°C
Dew
Point
°C
Rel
Hum
%
Delta-T
°C
Wind Press
QNH
hPa
Press
MSL
hPa
Rain since
9am
mm
Dir  Spd
km/h
Gust
km/h
Spd
kts
Gust
kts
19/11:30pm - - - - - WSW 30 33 16 18 - - -
19/11:00pm - - - - - W 35 41 19 22 - - -
19/10:30pm - - - - - W 46 57 25 31 - - -
19/10:00pm - - - - - W 54 67 29 36 - - -
19/09:43pm - - - - - WNW 52 63 28 34 - - -
19/09:30pm - - - - - NW 44 57 24 31 - - -
19/09:00pm - - - - - NNW 35 39 19 21 - - -
19/08:30pm - - - - - NNW 35 41 19 22 - - -
19/08:00pm - - - - - NNW 46 54 25 29 - - -
19/07:30pm - - - - - NW 48 61 26 33 - - -
19/07:00pm - - - - - NNW 43 50 23 27 - - -
19/06:30pm - - - - - NNW 39 48 21 26 - - -
19/06:00pm - - - - - NW 50 63 27 34 - - -
19/05:30pm - - - - - NNW 48 57 26 31 - - -
19/05:00pm - - - - - NW 46 56 25 30 - - -
19/04:35pm - - - - - NW 41 59 22 32 - - -
19/04:30pm - - - - - NW 48 61 26 33 - - -
19/04:00pm - - - - - NW 43 52 23 28 - - -
19/03:30pm - - - - - NNW 39 44 21 24 - - -
19/03:00pm - - - - - NNW 37 41 20 22 - - -
19/02:30pm - - - - - NNW 48 54 26 29 - - -
19/02:00pm - - - - - NNW 48 56 26 30 - - -
19/01:30pm - - - - - NNW 48 59 26 32 - - -
19/01:00pm - - - - - NNW 41 48 22 26 - - -
19/12:30pm - - - - - N 44 52 24 28 - - -
19/12:00pm - - - - - NNW 43 50 23 27 - - -
19/11:30am - - - - - NW 50 57 27 31 - - -
19/11:00am - - - - - NW 50 59 27 32 - - -
19/10:30am - - - - - NNW 43 54 23 29 - - -
19/10:00am - - - - - NNW 50 57 27 31 - - -
19/09:30am - - - - - N 50 57 27 31 - - -
19/09:00am - - - - - N 50 57 27 31 - - -
19/08:30am - - - - - N 52 61 28 33 - - -
19/08:00am - - - - - NNW 54 61 29 33 - - -
19/07:30am - - - - - NNW 54 61 29 33 - - -
19/07:00am - - - - - NNW 52 61 28 33 - - -
19/06:30am - - - - - NNW 48 56 26 30 - - -
19/06:00am - - - - - NNW 46 54 25 29 - - -
19/05:30am - - - - - NNW 37 46 20 25 - - -
19/05:00am - - - - - NNW 37 48 20 26 - - -
19/04:30am - - - - - NNW 41 50 22 27 - - -
19/04:00am - - - - - NNW 43 52 23 28 - - -
19/03:30am - - - - - NNW 43 50 23 27 - - -
19/03:00am - - - - - NNW 43 48 23 26 - - -
19/02:30am - - - - - NNW 43 50 23 27 - - -
19/02:00am - - - - - NNW 43 50 23 27 - - -
19/01:30am - - - - - NNW 39 44 21 24 - - -
19/01:00am - - - - - NW 39 46 21 25 - - -
19/12:30am - - - - - NNW 33 39 18 21 - - -
19/12:00am - - - - - NNW 35 39 19 21 - - -
 
Date/Time
EST
Temp
°C
App
Temp
°C
Dew
Point
°C
Rel
Hum
%
Delta-T
°C
Wind Press
QNH
hPa
Press
MSL
hPa
Rain since
9am
mm
Dir  Spd
km/h
Gust
km/h
Spd
kts
Gust
kts
18/11:30pm - - - - - NW 33 37 18 20 - - -
18/11:00pm - - - - - WNW 35 43 19 23 - - -
18/10:30pm - - - - - WNW 41 50 22 27 - - -
18/10:00pm - - - - - NW 39 48 21 26 - - -
18/09:30pm - - - - - NW 33 41 18 22 - - -
18/09:00pm - - - - - NW 28 33 15 18 - - -
18/08:30pm - - - - - NW 26 30 14 16 - - -
18/08:00pm - - - - - WNW 30 33 16 18 - - -
18/07:30pm - - - - - NW 33 39 18 21 - - -
18/07:00pm - - - - - WNW 33 39 18 21 - - -
18/06:30pm - - - - - WNW 35 39 19 21 - - -
18/06:00pm - - - - - WNW 41 50 22 27 - - -
18/05:30pm - - - - - WNW 37 44 20 24 - - -
18/05:00pm - - - - - WNW 44 54 24 29 - - -
18/04:42pm - - - - - W 54 72 29 39 - - -
18/04:30pm - - - - - W 52 61 28 33 - - -
18/04:00pm - - - - - W 48 57 26 31 - - -
18/03:30pm - - - - - WSW 57 74 31 40 - - -
18/03:22pm - - - - - WSW 69 96 37 52 - - -
18/03:20pm - - - - - WSW 65 96 35 52 - - -
18/03:17pm - - - - - WSW 61 96 33 52 - - -
18/03:15pm - - - - - W 54 78 29 42 - - -
18/03:00pm - - - - - W 56 69 30 37 - - -
18/02:31pm - - - - - W 48 67 26 36 - - -
18/02:30pm - - - - - W 48 59 26 32 - - -
18/02:00pm - - - - - W 52 65 28 35 - - -
18/01:30pm - - - - - WSW 57 80 31 43 - - -
18/01:28pm - - - - - WSW 61 80 33 43 - - -
18/01:18pm - - - - - W 57 93 31 50 - - -
18/01:17pm - - - - - W 54 93 29 50 - - -
18/01:15pm - - - - - W 48 78 26 42 - - -
18/01:00pm - - - - - WNW 43 54 23 29 - - -
18/12:30pm - - - - - WNW 48 57 26 31 - - -

Latest Capital City Observations: Canberra | Sydney | Melbourne | Brisbane | Adelaide | Perth | Hobart | Darwin

Other formats

Comma delimited format used in spreadsheet applications
http://www.bom.gov.au/fwo/IDV60901/IDV60901.94853.axf

JavaScript Object Notation format (JSON) in row-major order
http://www.bom.gov.au/fwo/IDV60901/IDV60901.94853.json

Data quality

Most of these data are generated automatically and are frequently updated. Quality checks on data are not normally performed. It is possible for incorrect values to appear. Refer to information at About Latest Weather Observations and please check the disclaimer before using these data.